sensor_id;sensor_type;location;lat;lon;timestamp;temperature;humidity
25570;DHT22;17955;45.542;9.238;2022-08-03T00:02:00;30.50;67.80
25570;DHT22;17955;45.542;9.238;2022-08-03T00:04:28;30.50;67.70
25570;DHT22;17955;45.542;9.238;2022-08-03T00:06:55;30.50;67.60
25570;DHT22;17955;45.542;9.238;2022-08-03T00:09:22;30.40;67.70
25570;DHT22;17955;45.542;9.238;2022-08-03T00:11:49;30.20;67.90
25570;DHT22;17955;45.542;9.238;2022-08-03T00:14:16;30.30;67.90
25570;DHT22;17955;45.542;9.238;2022-08-03T00:16:44;30.70;67.40
25570;DHT22;17955;45.542;9.238;2022-08-03T00:19:11;31.00;67.10
25570;DHT22;17955;45.542;9.238;2022-08-03T00:21:39;31.10;66.70
25570;DHT22;17955;45.542;9.238;2022-08-03T00:24:06;31.30;66.40
25570;DHT22;17955;45.542;9.238;2022-08-03T00:26:33;31.60;66.00
25570;DHT22;17955;45.542;9.238;2022-08-03T00:29:00;31.60;65.80
25570;DHT22;17955;45.542;9.238;2022-08-03T00:31:27;31.60;65.60
25570;DHT22;17955;45.542;9.238;2022-08-03T00:33:55;31.50;65.70
25570;DHT22;17955;45.542;9.238;2022-08-03T00:36:22;31.10;65.80
25570;DHT22;17955;45.542;9.238;2022-08-03T00:38:49;30.70;66.40
25570;DHT22;17955;45.542;9.238;2022-08-03T00:41:16;30.60;66.80
25570;DHT22;17955;45.542;9.238;2022-08-03T00:43:43;30.70;67.00
25570;DHT22;17955;45.542;9.238;2022-08-03T00:46:12;31.00;66.50
25570;DHT22;17955;45.542;9.238;2022-08-03T00:48:39;30.90;66.10
25570;DHT22;17955;45.542;9.238;2022-08-03T00:51:07;30.50;66.60
25570;DHT22;17955;45.542;9.238;2022-08-03T00:53:35;30.20;67.30
25570;DHT22;17955;45.542;9.238;2022-08-03T00:56:03;30.30;67.30
25570;DHT22;17955;45.542;9.238;2022-08-03T00:58:30;30.50;67.10
25570;DHT22;17955;45.542;9.238;2022-08-03T01:00:57;30.60;66.80
25570;DHT22;17955;45.542;9.238;2022-08-03T01:03:24;30.80;66.70
25570;DHT22;17955;45.542;9.238;2022-08-03T01:05:54;31.10;66.30
25570;DHT22;17955;45.542;9.238;2022-08-03T01:08:30;31.20;66.00
25570;DHT22;17955;45.542;9.238;2022-08-03T01:11:05;30.90;66.20
25570;DHT22;17955;45.542;9.238;2022-08-03T01:13:43;30.90;66.30
25570;DHT22;17955;45.542;9.238;2022-08-03T01:16:18;31.00;66.30
25570;DHT22;17955;45.542;9.238;2022-08-03T01:18:52;31.20;66.00
25570;DHT22;17955;45.542;9.238;2022-08-03T01:21:25;31.30;65.80
25570;DHT22;17955;45.542;9.238;2022-08-03T01:24:04;31.30;65.80
25570;DHT22;17955;45.542;9.238;2022-08-03T01:26:47;31.30;65.80
25570;DHT22;17955;45.542;9.238;2022-08-03T01:29:55;31.20;65.50
25570;DHT22;17955;45.542;9.238;2022-08-03T01:32:27;31.00;66.00
25570;DHT22;17955;45.542;9.238;2022-08-03T01:35:01;30.60;66.30
25570;DHT22;17955;45.542;9.238;2022-08-03T01:37:34;30.20;67.10
25570;DHT22;17955;45.542;9.238;2022-08-03T01:40:04;29.80;67.90
25570;DHT22;17955;45.542;9.238;2022-08-03T01:42:32;29.90;68.10
25570;DHT22;17955;45.542;9.238;2022-08-03T01:45:02;29.80;68.10
25570;DHT22;17955;45.542;9.238;2022-08-03T01:47:31;29.70;68.30
25570;DHT22;17955;45.542;9.238;2022-08-03T01:49:59;30.00;67.90
25570;DHT22;17955;45.542;9.238;2022-08-03T01:52:28;29.80;68.00
25570;DHT22;17955;45.542;9.238;2022-08-03T01:54:57;29.60;68.20
25570;DHT22;17955;45.542;9.238;2022-08-03T01:57:27;29.70;68.50
25570;DHT22;17955;45.542;9.238;2022-08-03T01:59:56;29.90;68.40
25570;DHT22;17955;45.542;9.238;2022-08-03T02:02:26;30.30;67.80
25570;DHT22;17955;45.542;9.238;2022-08-03T02:04:56;30.50;67.30
25570;DHT22;17955;45.542;9.238;2022-08-03T02:07:25;30.60;66.80
25570;DHT22;17955;45.542;9.238;2022-08-03T02:09:54;30.30;66.90
25570;DHT22;17955;45.542;9.238;2022-08-03T02:12:23;30.30;67.00
25570;DHT22;17955;45.542;9.238;2022-08-03T02:14:51;30.00;67.60
25570;DHT22;17955;45.542;9.238;2022-08-03T02:17:20;30.10;67.70
25570;DHT22;17955;45.542;9.238;2022-08-03T02:19:51;30.00;67.70
25570;DHT22;17955;45.542;9.238;2022-08-03T02:22:18;30.00;67.80
25570;DHT22;17955;45.542;9.238;2022-08-03T02:24:45;29.80;67.90
25570;DHT22;17955;45.542;9.238;2022-08-03T02:27:17;29.80;68.10
25570;DHT22;17955;45.542;9.238;2022-08-03T02:29:48;30.00;68.00
25570;DHT22;17955;45.542;9.238;2022-08-03T02:32:18;30.10;67.80
25570;DHT22;17955;45.542;9.238;2022-08-03T02:34:49;30.40;67.30
25570;DHT22;17955;45.542;9.238;2022-08-03T02:37:18;30.70;66.90
25570;DHT22;17955;45.542;9.238;2022-08-03T02:39:48;30.80;66.50
25570;DHT22;17955;45.542;9.238;2022-08-03T02:42:20;31.10;66.10
25570;DHT22;17955;45.542;9.238;2022-08-03T02:44:50;31.20;65.70
25570;DHT22;17955;45.542;9.238;2022-08-03T02:47:19;31.20;65.70
25570;DHT22;17955;45.542;9.238;2022-08-03T02:49:48;31.40;65.50
25570;DHT22;17955;45.542;9.238;2022-08-03T02:52:19;31.50;65.30
25570;DHT22;17955;45.542;9.238;2022-08-03T02:54:52;31.50;65.10
25570;DHT22;17955;45.542;9.238;2022-08-03T02:57:21;31.30;65.30
25570;DHT22;17955;45.542;9.238;2022-08-03T02:59:49;31.30;65.50
25570;DHT22;17955;45.542;9.238;2022-08-03T03:02:17;31.20;65.90
25570;DHT22;17955;45.542;9.238;2022-08-03T03:04:45;31.00;66.10
25570;DHT22;17955;45.542;9.238;2022-08-03T03:07:13;31.00;66.40
25570;DHT22;17955;45.542;9.238;2022-08-03T03:09:43;31.00;66.50
25570;DHT22;17955;45.542;9.238;2022-08-03T03:12:12;30.90;66.50
25570;DHT22;17955;45.542;9.238;2022-08-03T03:14:39;30.80;66.70
25570;DHT22;17955;45.542;9.238;2022-08-03T03:17:07;30.80;66.90
25570;DHT22;17955;45.542;9.238;2022-08-03T03:19:36;30.70;67.00
25570;DHT22;17955;45.542;9.238;2022-08-03T03:22:05;30.60;67.30
25570;DHT22;17955;45.542;9.238;2022-08-03T03:24:34;30.60;67.40
25570;DHT22;17955;45.542;9.238;2022-08-03T03:27:03;30.50;67.50
25570;DHT22;17955;45.542;9.238;2022-08-03T03:29:31;30.50;67.70
25570;DHT22;17955;45.542;9.238;2022-08-03T03:32:00;30.40;67.80
25570;DHT22;17955;45.542;9.238;2022-08-03T03:34:28;30.30;67.80
25570;DHT22;17955;45.542;9.238;2022-08-03T03:36:55;30.30;68.00
25570;DHT22;17955;45.542;9.238;2022-08-03T03:39:22;30.30;68.00
25570;DHT22;17955;45.542;9.238;2022-08-03T03:41:49;30.20;68.00
25570;DHT22;17955;45.542;9.238;2022-08-03T03:44:18;30.30;67.90
25570;DHT22;17955;45.542;9.238;2022-08-03T03:46:45;30.30;68.00
25570;DHT22;17955;45.542;9.238;2022-08-03T03:49:12;30.30;68.10
25570;DHT22;17955;45.542;9.238;2022-08-03T03:51:39;30.20;68.20
25570;DHT22;17955;45.542;9.238;2022-08-03T03:54:06;30.30;68.40
25570;DHT22;17955;45.542;9.238;2022-08-03T03:56:33;30.30;68.50
25570;DHT22;17955;45.542;9.238;2022-08-03T03:59:00;30.30;68.60
25570;DHT22;17955;45.542;9.238;2022-08-03T04:01:28;30.30;68.60
25570;DHT22;17955;45.542;9.238;2022-08-03T04:03:56;30.30;68.70
25570;DHT22;17955;45.542;9.238;2022-08-03T04:06:43;30.40;68.80
25570;DHT22;17955;45.542;9.238;2022-08-03T04:09:27;30.30;68.80
25570;DHT22;17955;45.542;9.238;2022-08-03T04:12:13;30.50;68.80
25570;DHT22;17955;45.542;9.238;2022-08-03T04:14:41;30.50;68.80
25570;DHT22;17955;45.542;9.238;2022-08-03T04:17:12;30.50;68.80
25570;DHT22;17955;45.542;9.238;2022-08-03T04:19:44;30.40;68.90
25570;DHT22;17955;45.542;9.238;2022-08-03T04:22:15;30.40;69.10
25570;DHT22;17955;45.542;9.238;2022-08-03T04:24:47;30.50;69.90
25570;DHT22;17955;45.542;9.238;2022-08-03T04:27:17;30.50;69.10
25570;DHT22;17955;45.542;9.238;2022-08-03T04:29:48;30.50;69.20
25570;DHT22;17955;45.542;9.238;2022-08-03T04:32:19;30.60;69.30
25570;DHT22;17955;45.542;9.238;2022-08-03T04:34:49;30.90;69.20
25570;DHT22;17955;45.542;9.238;2022-08-03T04:37:23;31.30;68.50
25570;DHT22;17955;45.542;9.238;2022-08-03T04:39:52;31.80;67.80
25570;DHT22;17955;45.542;9.238;2022-08-03T04:42:20;32.30;67.20
25570;DHT22;17955;45.542;9.238;2022-08-03T04:44:48;32.70;66.20
25570;DHT22;17955;45.542;9.238;2022-08-03T04:47:15;33.10;65.50
25570;DHT22;17955;45.542;9.238;2022-08-03T04:49:44;33.50;64.80
25570;DHT22;17955;45.542;9.238;2022-08-03T04:52:11;34.00;64.10
25570;DHT22;17955;45.542;9.238;2022-08-03T04:54:39;34.60;63.20
25570;DHT22;17955;45.542;9.238;2022-08-03T04:57:06;35.10;62.40
25570;DHT22;17955;45.542;9.238;2022-08-03T04:59:33;35.60;61.40
25570;DHT22;17955;45.542;9.238;2022-08-03T05:02:00;35.80;60.10
25570;DHT22;17955;45.542;9.238;2022-08-03T05:04:27;36.30;59.60
25570;DHT22;17955;45.542;9.238;2022-08-03T05:06:56;36.30;58.90
25570;DHT22;17955;45.542;9.238;2022-08-03T05:09:23;36.50;58.50
25570;DHT22;17955;45.542;9.238;2022-08-03T05:11:50;36.90;58.20
25570;DHT22;17955;45.542;9.238;2022-08-03T05:14:17;36.90;57.80
25570;DHT22;17955;45.542;9.238;2022-08-03T05:16:43;37.00;57.60
25570;DHT22;17955;45.542;9.238;2022-08-03T05:19:10;37.50;57.30
25570;DHT22;17955;45.542;9.238;2022-08-03T05:21:38;38.00;57.00
25570;DHT22;17955;45.542;9.238;2022-08-03T05:24:06;38.40;56.70
25570;DHT22;17955;45.542;9.238;2022-08-03T05:26:33;38.70;56.30
25570;DHT22;17955;45.542;9.238;2022-08-03T05:29:00;39.10;55.90
25570;DHT22;17955;45.542;9.238;2022-08-03T05:31:27;39.70;55.90
25570;DHT22;17955;45.542;9.238;2022-08-03T05:33:55;40.10;55.10
25570;DHT22;17955;45.542;9.238;2022-08-03T05:36:22;40.20;54.70
25570;DHT22;17955;45.542;9.238;2022-08-03T05:38:49;40.60;54.20
25570;DHT22;17955;45.542;9.238;2022-08-03T05:41:17;41.10;53.70
25570;DHT22;17955;45.542;9.238;2022-08-03T05:43:44;41.40;53.30
25570;DHT22;17955;45.542;9.238;2022-08-03T05:46:11;41.80;53.00
25570;DHT22;17955;45.542;9.238;2022-08-03T05:48:39;42.10;52.60
25570;DHT22;17955;45.542;9.238;2022-08-03T05:51:06;42.10;52.10
25570;DHT22;17955;45.542;9.238;2022-08-03T05:53:35;42.10;51.70
25570;DHT22;17955;45.542;9.238;2022-08-03T05:56:03;41.10;51.90
25570;DHT22;17955;45.542;9.238;2022-08-03T05:58:31;40.40;52.40
25570;DHT22;17955;45.542;9.238;2022-08-03T06:00:58;40.20;52.80
25570;DHT22;17955;45.542;9.238;2022-08-03T06:03:25;40.40;52.90
25570;DHT22;17955;45.542;9.238;2022-08-03T06:05:53;40.30;52.80
25570;DHT22;17955;45.542;9.238;2022-08-03T06:08:21;40.50;52.50
25570;DHT22;17955;45.542;9.238;2022-08-03T06:10:48;40.30;52.30
25570;DHT22;17955;45.542;9.238;2022-08-03T06:13:15;40.30;52.10
25570;DHT22;17955;45.542;9.238;2022-08-03T06:15:43;40.50;52.20
25570;DHT22;17955;45.542;9.238;2022-08-03T06:18:10;40.60;51.80
25570;DHT22;17955;45.542;9.238;2022-08-03T06:20:37;40.80;51.60
25570;DHT22;17955;45.542;9.238;2022-08-03T06:23:04;40.80;51.20
25570;DHT22;17955;45.542;9.238;2022-08-03T06:25:32;40.80;51.20
25570;DHT22;17955;45.542;9.238;2022-08-03T06:27:59;40.70;51.50
25570;DHT22;17955;45.542;9.238;2022-08-03T06:30:26;40.80;51.50
25570;DHT22;17955;45.542;9.238;2022-08-03T06:32:54;41.20;51.30
25570;DHT22;17955;45.542;9.238;2022-08-03T06:35:21;41.50;50.80
25570;DHT22;17955;45.542;9.238;2022-08-03T06:37:50;41.30;50.80
25570;DHT22;17955;45.542;9.238;2022-08-03T06:40:18;41.30;50.60
25570;DHT22;17955;45.542;9.238;2022-08-03T06:42:47;41.40;50.60
25570;DHT22;17955;45.542;9.238;2022-08-03T06:45:14;41.30;50.30
25570;DHT22;17955;45.542;9.238;2022-08-03T06:47:41;40.90;50.60
25570;DHT22;17955;45.542;9.238;2022-08-03T06:50:10;40.60;50.60
25570;DHT22;17955;45.542;9.238;2022-08-03T06:52:37;40.60;50.70
25570;DHT22;17955;45.542;9.238;2022-08-03T06:55:05;40.30;50.60
25570;DHT22;17955;45.542;9.238;2022-08-03T06:57:32;39.40;50.80
25570;DHT22;17955;45.542;9.238;2022-08-03T06:59:59;39.40;51.40
25570;DHT22;17955;45.542;9.238;2022-08-03T07:02:27;39.50;51.40
25570;DHT22;17955;45.542;9.238;2022-08-03T07:04:55;39.40;51.40
25570;DHT22;17955;45.542;9.238;2022-08-03T07:07:23;39.20;51.50
25570;DHT22;17955;45.542;9.238;2022-08-03T07:09:50;38.60;51.80
25570;DHT22;17955;45.542;9.238;2022-08-03T07:12:17;39.00;52.20
25570;DHT22;17955;45.542;9.238;2022-08-03T07:14:44;39.20;52.20
25570;DHT22;17955;45.542;9.238;2022-08-03T07:17:11;39.20;52.30
25570;DHT22;17955;45.542;9.238;2022-08-03T07:19:38;39.20;52.20
25570;DHT22;17955;45.542;9.238;2022-08-03T07:22:05;39.00;52.40
25570;DHT22;17955;45.542;9.238;2022-08-03T07:24:34;38.90;52.60
25570;DHT22;17955;45.542;9.238;2022-08-03T07:27:02;38.40;52.90
25570;DHT22;17955;45.542;9.238;2022-08-03T07:29:29;38.30;53.10
25570;DHT22;17955;45.542;9.238;2022-08-03T07:31:56;38.40;53.00
25570;DHT22;17955;45.542;9.238;2022-08-03T07:34:22;38.10;53.30
25570;DHT22;17955;45.542;9.238;2022-08-03T07:36:49;38.10;53.50
25570;DHT22;17955;45.542;9.238;2022-08-03T07:39:16;37.90;53.40
25570;DHT22;17955;45.542;9.238;2022-08-03T07:41:45;37.90;53.10
25570;DHT22;17955;45.542;9.238;2022-08-03T07:44:14;37.50;53.30
25570;DHT22;17955;45.542;9.238;2022-08-03T07:46:41;37.40;53.10
25570;DHT22;17955;45.542;9.238;2022-08-03T07:49:08;37.00;53.60
25570;DHT22;17955;45.542;9.238;2022-08-03T07:51:35;37.00;53.80
25570;DHT22;17955;45.542;9.238;2022-08-03T07:54:03;37.10;53.70
25570;DHT22;17955;45.542;9.238;2022-08-03T07:56:30;37.30;53.60
25570;DHT22;17955;45.542;9.238;2022-08-03T07:58:58;37.40;53.40
25570;DHT22;17955;45.542;9.238;2022-08-03T08:01:27;37.30;53.60
25570;DHT22;17955;45.542;9.238;2022-08-03T08:03:54;37.20;53.40
25570;DHT22;17955;45.542;9.238;2022-08-03T08:06:21;36.90;53.60
25570;DHT22;17955;45.542;9.238;2022-08-03T08:08:48;37.40;53.60
25570;DHT22;17955;45.542;9.238;2022-08-03T08:11:15;37.60;53.40
25570;DHT22;17955;45.542;9.238;2022-08-03T08:13:42;37.70;53.00
25570;DHT22;17955;45.542;9.238;2022-08-03T08:16:10;38.10;52.50
25570;DHT22;17955;45.542;9.238;2022-08-03T08:18:37;38.00;52.20
25570;DHT22;17955;45.542;9.238;2022-08-03T08:21:04;37.90;52.50
25570;DHT22;17955;45.542;9.238;2022-08-03T08:23:31;37.80;52.40
25570;DHT22;17955;45.542;9.238;2022-08-03T08:25:58;37.70;52.80
25570;DHT22;17955;45.542;9.238;2022-08-03T08:28:25;37.30;52.50
25570;DHT22;17955;45.542;9.238;2022-08-03T08:30:52;36.70;52.70
25570;DHT22;17955;45.542;9.238;2022-08-03T08:33:20;36.20;52.60
25570;DHT22;17955;45.542;9.238;2022-08-03T08:35:47;35.60;53.00
25570;DHT22;17955;45.542;9.238;2022-08-03T08:38:14;35.30;53.40
25570;DHT22;17955;45.542;9.238;2022-08-03T08:40:41;35.30;53.40
25570;DHT22;17955;45.542;9.238;2022-08-03T08:43:08;35.40;53.70
25570;DHT22;17955;45.542;9.238;2022-08-03T08:45:36;35.70;53.80
25570;DHT22;17955;45.542;9.238;2022-08-03T08:48:04;35.80;53.80
25570;DHT22;17955;45.542;9.238;2022-08-03T08:50:34;35.80;53.70
25570;DHT22;17955;45.542;9.238;2022-08-03T08:53:03;36.10;53.50
25570;DHT22;17955;45.542;9.238;2022-08-03T08:55:34;36.50;53.40
25570;DHT22;17955;45.542;9.238;2022-08-03T08:58:03;36.30;53.80
25570;DHT22;17955;45.542;9.238;2022-08-03T09:00:30;35.50;53.80
25570;DHT22;17955;45.542;9.238;2022-08-03T09:02:57;34.80;54.50
25570;DHT22;17955;45.542;9.238;2022-08-03T09:05:25;34.90;54.60
25570;DHT22;17955;45.542;9.238;2022-08-03T09:07:54;34.80;54.90
25570;DHT22;17955;45.542;9.238;2022-08-03T09:10:21;35.00;54.90
25570;DHT22;17955;45.542;9.238;2022-08-03T09:12:50;35.20;54.60
25570;DHT22;17955;45.542;9.238;2022-08-03T09:15:19;35.10;54.50
25570;DHT22;17955;45.542;9.238;2022-08-03T09:17:47;35.40;54.30
25570;DHT22;17955;45.542;9.238;2022-08-03T09:20:14;35.80;53.90
25570;DHT22;17955;45.542;9.238;2022-08-03T09:22:55;35.60;53.90
25570;DHT22;17955;45.542;9.238;2022-08-03T09:25:30;35.20;53.50
25570;DHT22;17955;45.542;9.238;2022-08-03T09:28:08;34.80;54.30
25570;DHT22;17955;45.542;9.238;2022-08-03T09:30:37;34.80;54.30
25570;DHT22;17955;45.542;9.238;2022-08-03T09:33:05;35.00;54.50
25570;DHT22;17955;45.542;9.238;2022-08-03T09:35:39;35.10;54.30
25570;DHT22;17955;45.542;9.238;2022-08-03T09:38:16;35.30;54.20
25570;DHT22;17955;45.542;9.238;2022-08-03T09:40:45;35.10;53.90
25570;DHT22;17955;45.542;9.238;2022-08-03T09:43:12;35.20;53.90
25570;DHT22;17955;45.542;9.238;2022-08-03T09:45:39;34.80;53.90
25570;DHT22;17955;45.542;9.238;2022-08-03T09:48:28;34.70;54.10
25570;DHT22;17955;45.542;9.238;2022-08-03T09:50:56;34.60;53.80
25570;DHT22;17955;45.542;9.238;2022-08-03T09:53:25;34.60;54.00
25570;DHT22;17955;45.542;9.238;2022-08-03T09:55:54;34.70;54.20
25570;DHT22;17955;45.542;9.238;2022-08-03T09:58:23;34.60;54.30
25570;DHT22;17955;45.542;9.238;2022-08-03T10:00:58;34.70;54.50
25570;DHT22;17955;45.542;9.238;2022-08-03T10:03:25;35.00;54.60
25570;DHT22;17955;45.542;9.238;2022-08-03T10:05:53;35.40;54.20
25570;DHT22;17955;45.542;9.238;2022-08-03T10:08:20;35.50;54.00
25570;DHT22;17955;45.542;9.238;2022-08-03T10:10:50;35.50;53.80
25570;DHT22;17955;45.542;9.238;2022-08-03T10:13:19;35.20;53.50
25570;DHT22;17955;45.542;9.238;2022-08-03T10:15:46;35.40;53.30
25570;DHT22;17955;45.542;9.238;2022-08-03T10:18:13;35.20;53.50
25570;DHT22;17955;45.542;9.238;2022-08-03T10:20:44;35.40;53.80
25570;DHT22;17955;45.542;9.238;2022-08-03T10:23:13;35.30;53.70
25570;DHT22;17955;45.542;9.238;2022-08-03T10:25:43;35.40;53.90
25570;DHT22;17955;45.542;9.238;2022-08-03T10:28:18;35.10;53.80
25570;DHT22;17955;45.542;9.238;2022-08-03T10:30:48;35.10;53.80
25570;DHT22;17955;45.542;9.238;2022-08-03T10:33:18;35.20;53.90
25570;DHT22;17955;45.542;9.238;2022-08-03T10:35:46;34.90;54.00
25570;DHT22;17955;45.542;9.238;2022-08-03T10:38:18;34.30;54.20
25570;DHT22;17955;45.542;9.238;2022-08-03T10:40:47;34.00;54.70
25570;DHT22;17955;45.542;9.238;2022-08-03T10:43:20;33.70;55.00
25570;DHT22;17955;45.542;9.238;2022-08-03T10:45:48;33.50;55.50
25570;DHT22;17955;45.542;9.238;2022-08-03T10:48:17;33.50;55.50
25570;DHT22;17955;45.542;9.238;2022-08-03T10:50:45;33.40;55.60
25570;DHT22;17955;45.542;9.238;2022-08-03T10:53:12;33.30;55.70
25570;DHT22;17955;45.542;9.238;2022-08-03T10:55:40;33.30;55.80
25570;DHT22;17955;45.542;9.238;2022-08-03T10:58:47;33.30;55.60
25570;DHT22;17955;45.542;9.238;2022-08-03T11:01:16;33.40;55.60
25570;DHT22;17955;45.542;9.238;2022-08-03T11:07:17;33.50;55.70
25570;DHT22;17955;45.542;9.238;2022-08-03T11:09:46;33.40;55.60
25570;DHT22;17955;45.542;9.238;2022-08-03T11:12:22;33.20;55.80
25570;DHT22;17955;45.542;9.238;2022-08-03T11:14:52;33.10;56.00
25570;DHT22;17955;45.542;9.238;2022-08-03T11:17:20;33.10;55.90
25570;DHT22;17955;45.542;9.238;2022-08-03T11:19:49;33.10;56.00
25570;DHT22;17955;45.542;9.238;2022-08-03T11:22:17;33.00;56.70
25570;DHT22;17955;45.542;9.238;2022-08-03T11:24:57;33.10;56.00
25570;DHT22;17955;45.542;9.238;2022-08-03T11:27:25;33.20;55.80
25570;DHT22;17955;45.542;9.238;2022-08-03T11:29:59;33.30;55.80
25570;DHT22;17955;45.542;9.238;2022-08-03T11:32:52;33.50;55.60
25570;DHT22;17955;45.542;9.238;2022-08-03T11:35:22;33.70;55.50
25570;DHT22;17955;45.542;9.238;2022-08-03T11:38:06;33.70;55.30
25570;DHT22;17955;45.542;9.238;2022-08-03T11:40:35;33.70;55.30
25570;DHT22;17955;45.542;9.238;2022-08-03T11:43:04;33.50;55.60
25570;DHT22;17955;45.542;9.238;2022-08-03T11:45:33;33.50;55.80
25570;DHT22;17955;45.542;9.238;2022-08-03T11:48:14;33.40;55.80
25570;DHT22;17955;45.542;9.238;2022-08-03T11:50:42;33.20;55.80
25570;DHT22;17955;45.542;9.238;2022-08-03T11:53:14;33.20;55.80
25570;DHT22;17955;45.542;9.238;2022-08-03T11:55:42;33.30;55.70
25570;DHT22;17955;45.542;9.238;2022-08-03T11:58:17;33.50;55.70
25570;DHT22;17955;45.542;9.238;2022-08-03T12:00:46;33.80;55.90
25570;DHT22;17955;45.542;9.238;2022-08-03T12:03:14;33.60;55.70
25570;DHT22;17955;45.542;9.238;2022-08-03T12:05:44;33.70;55.80
25570;DHT22;17955;45.542;9.238;2022-08-03T12:08:13;33.60;55.90
25570;DHT22;17955;45.542;9.238;2022-08-03T12:10:47;33.70;55.70
25570;DHT22;17955;45.542;9.238;2022-08-03T12:13:15;33.60;55.70
25570;DHT22;17955;45.542;9.238;2022-08-03T12:15:42;33.60;55.90
25570;DHT22;17955;45.542;9.238;2022-08-03T12:18:15;33.40;56.10
25570;DHT22;17955;45.542;9.238;2022-08-03T12:20:43;33.40;56.10
25570;DHT22;17955;45.542;9.238;2022-08-03T12:23:10;33.30;56.00
25570;DHT22;17955;45.542;9.238;2022-08-03T12:25:39;33.20;56.50
25570;DHT22;17955;45.542;9.238;2022-08-03T12:28:08;33.20;56.30
25570;DHT22;17955;45.542;9.238;2022-08-03T12:30:37;33.40;56.30
25570;DHT22;17955;45.542;9.238;2022-08-03T12:33:29;33.40;56.20
25570;DHT22;17955;45.542;9.238;2022-08-03T12:36:04;33.30;56.30
25570;DHT22;17955;45.542;9.238;2022-08-03T12:38:32;33.40;56.30
25570;DHT22;17955;45.542;9.238;2022-08-03T12:41:00;33.40;56.10
25570;DHT22;17955;45.542;9.238;2022-08-03T12:43:27;33.40;56.10
25570;DHT22;17955;45.542;9.238;2022-08-03T12:46:12;33.80;56.00
25570;DHT22;17955;45.542;9.238;2022-08-03T12:49:01;34.10;55.60
25570;DHT22;17955;45.542;9.238;2022-08-03T12:51:29;34.60;55.30
25570;DHT22;17955;45.542;9.238;2022-08-03T12:53:57;35.20;54.80
25570;DHT22;17955;45.542;9.238;2022-08-03T12:56:24;35.30;54.40
25570;DHT22;17955;45.542;9.238;2022-08-03T12:58:51;35.40;54.40
25570;DHT22;17955;45.542;9.238;2022-08-03T13:01:19;35.80;54.10
25570;DHT22;17955;45.542;9.238;2022-08-03T13:03:50;35.90;53.80
25570;DHT22;17955;45.542;9.238;2022-08-03T13:06:21;36.10;53.60
25570;DHT22;17955;45.542;9.238;2022-08-03T13:08:48;36.20;53.10
25570;DHT22;17955;45.542;9.238;2022-08-03T13:11:21;36.10;53.20
25570;DHT22;17955;45.542;9.238;2022-08-03T13:13:48;36.20;53.00
25570;DHT22;17955;45.542;9.238;2022-08-03T13:16:16;36.10;52.80
25570;DHT22;17955;45.542;9.238;2022-08-03T13:18:43;35.90;53.00
25570;DHT22;17955;45.542;9.238;2022-08-03T13:21:12;35.90;53.10
25570;DHT22;17955;45.542;9.238;2022-08-03T13:23:42;35.80;53.10
25570;DHT22;17955;45.542;9.238;2022-08-03T13:26:09;36.20;53.00
25570;DHT22;17955;45.542;9.238;2022-08-03T13:28:36;36.50;52.80
25570;DHT22;17955;45.542;9.238;2022-08-03T13:31:04;36.40;52.30
25570;DHT22;17955;45.542;9.238;2022-08-03T13:33:31;36.20;51.90
25570;DHT22;17955;45.542;9.238;2022-08-03T13:35:58;35.90;52.20
25570;DHT22;17955;45.542;9.238;2022-08-03T13:38:26;35.80;52.40
25570;DHT22;17955;45.542;9.238;2022-08-03T13:40:54;36.00;52.50
25570;DHT22;17955;45.542;9.238;2022-08-03T13:43:21;35.90;52.50
25570;DHT22;17955;45.542;9.238;2022-08-03T13:45:48;35.90;52.30
25570;DHT22;17955;45.542;9.238;2022-08-03T13:48:15;35.80;52.40
25570;DHT22;17955;45.542;9.238;2022-08-03T13:50:42;36.30;52.10
25570;DHT22;17955;45.542;9.238;2022-08-03T13:53:09;36.40;52.00
25570;DHT22;17955;45.542;9.238;2022-08-03T13:55:36;36.70;52.10
25570;DHT22;17955;45.542;9.238;2022-08-03T13:58:05;36.60;52.50
25570;DHT22;17955;45.542;9.238;2022-08-03T14:00:33;36.50;51.80
25570;DHT22;17955;45.542;9.238;2022-08-03T14:03:01;36.60;51.70
25570;DHT22;17955;45.542;9.238;2022-08-03T14:05:28;36.30;51.90
25570;DHT22;17955;45.542;9.238;2022-08-03T14:07:56;36.40;51.90
25570;DHT22;17955;45.542;9.238;2022-08-03T14:10:23;36.50;51.90
25570;DHT22;17955;45.542;9.238;2022-08-03T14:12:50;36.70;51.70
25570;DHT22;17955;45.542;9.238;2022-08-03T14:15:18;36.80;51.60
25570;DHT22;17955;45.542;9.238;2022-08-03T14:17:45;36.70;51.60
25570;DHT22;17955;45.542;9.238;2022-08-03T14:20:12;36.80;51.60
25570;DHT22;17955;45.542;9.238;2022-08-03T14:22:40;37.10;51.40
25570;DHT22;17955;45.542;9.238;2022-08-03T14:25:07;37.10;51.30
25570;DHT22;17955;45.542;9.238;2022-08-03T14:27:34;37.10;51.40
25570;DHT22;17955;45.542;9.238;2022-08-03T14:30:02;37.00;51.20
25570;DHT22;17955;45.542;9.238;2022-08-03T14:32:30;36.90;51.90
25570;DHT22;17955;45.542;9.238;2022-08-03T14:34:57;37.10;51.40
25570;DHT22;17955;45.542;9.238;2022-08-03T14:37:24;37.30;51.10
25570;DHT22;17955;45.542;9.238;2022-08-03T14:39:51;37.50;51.00
25570;DHT22;17955;45.542;9.238;2022-08-03T14:42:18;37.80;50.80
25570;DHT22;17955;45.542;9.238;2022-08-03T14:44:46;38.00;50.70
25570;DHT22;17955;45.542;9.238;2022-08-03T14:47:13;37.80;50.70
25570;DHT22;17955;45.542;9.238;2022-08-03T14:49:41;38.00;50.50
25570;DHT22;17955;45.542;9.238;2022-08-03T14:52:08;38.10;50.20
25570;DHT22;17955;45.542;9.238;2022-08-03T14:54:35;38.10;50.30
25570;DHT22;17955;45.542;9.238;2022-08-03T14:57:03;38.10;50.30
25570;DHT22;17955;45.542;9.238;2022-08-03T14:59:30;38.10;50.30
25570;DHT22;17955;45.542;9.238;2022-08-03T15:01:57;37.80;50.40
25570;DHT22;17955;45.542;9.238;2022-08-03T15:04:25;38.00;50.30
25570;DHT22;17955;45.542;9.238;2022-08-03T15:06:53;38.20;50.00
25570;DHT22;17955;45.542;9.238;2022-08-03T15:09:20;38.10;49.90
25570;DHT22;17955;45.542;9.238;2022-08-03T15:11:47;37.70;49.90
25570;DHT22;17955;45.542;9.238;2022-08-03T15:14:14;37.80;49.90
25570;DHT22;17955;45.542;9.238;2022-08-03T15:16:41;38.10;49.90
25570;DHT22;17955;45.542;9.238;2022-08-03T15:19:08;38.10;49.80
25570;DHT22;17955;45.542;9.238;2022-08-03T15:21:35;37.90;49.80
25570;DHT22;17955;45.542;9.238;2022-08-03T15:24:04;37.50;50.10
25570;DHT22;17955;45.542;9.238;2022-08-03T15:26:32;37.20;50.20
25570;DHT22;17955;45.542;9.238;2022-08-03T15:28:59;37.10;50.60
25570;DHT22;17955;45.542;9.238;2022-08-03T15:31:27;37.40;50.50
25570;DHT22;17955;45.542;9.238;2022-08-03T15:33:54;37.40;50.40
25570;DHT22;17955;45.542;9.238;2022-08-03T15:36:21;37.40;50.30
25570;DHT22;17955;45.542;9.238;2022-08-03T15:38:48;37.10;50.50
25570;DHT22;17955;45.542;9.238;2022-08-03T15:41:16;36.50;50.90
25570;DHT22;17955;45.542;9.238;2022-08-03T15:43:44;36.50;51.30
25570;DHT22;17955;45.542;9.238;2022-08-03T15:46:12;36.40;51.30